sensor_id;sensor_type;location;lat;lon;timestamp;temperature;humidity
74511;DHT22;62991;50.040;18.400;2023-04-25T00:03:00;11.30;76.60
74511;DHT22;62991;50.040;18.400;2023-04-25T00:06:01;11.20;76.90
74511;DHT22;62991;50.040;18.400;2023-04-25T00:09:05;11.30;76.50
74511;DHT22;62991;50.040;18.400;2023-04-25T00:12:08;11.30;76.30
74511;DHT22;62991;50.040;18.400;2023-04-25T00:15:09;11.40;75.50
74511;DHT22;62991;50.040;18.400;2023-04-25T00:18:09;11.40;74.80
74511;DHT22;62991;50.040;18.400;2023-04-25T00:21:11;11.30;73.80
74511;DHT22;62991;50.040;18.400;2023-04-25T00:24:12;11.30;73.90
74511;DHT22;62991;50.040;18.400;2023-04-25T00:27:13;11.30;72.80
74511;DHT22;62991;50.040;18.400;2023-04-25T00:30:14;11.20;72.10
74511;DHT22;62991;50.040;18.400;2023-04-25T00:33:14;11.30;72.00
74511;DHT22;62991;50.040;18.400;2023-04-25T00:36:15;11.50;70.50
74511;DHT22;62991;50.040;18.400;2023-04-25T00:39:16;11.50;69.60
74511;DHT22;62991;50.040;18.400;2023-04-25T00:42:16;11.60;68.80
74511;DHT22;62991;50.040;18.400;2023-04-25T00:45:17;11.60;68.20
74511;DHT22;62991;50.040;18.400;2023-04-25T00:48:19;11.50;67.50
74511;DHT22;62991;50.040;18.400;2023-04-25T00:51:22;11.60;67.50
74511;DHT22;62991;50.040;18.400;2023-04-25T00:54:23;11.50;67.00
74511;DHT22;62991;50.040;18.400;2023-04-25T00:57:23;11.40;66.80
74511;DHT22;62991;50.040;18.400;2023-04-25T01:00:24;11.40;66.30
74511;DHT22;62991;50.040;18.400;2023-04-25T01:03:25;11.40;66.10
74511;DHT22;62991;50.040;18.400;2023-04-25T01:06:28;11.40;66.00
74511;DHT22;62991;50.040;18.400;2023-04-25T01:09:30;11.40;65.70
74511;DHT22;62991;50.040;18.400;2023-04-25T01:12:32;11.40;65.50
74511;DHT22;62991;50.040;18.400;2023-04-25T01:15:33;11.40;65.80
74511;DHT22;62991;50.040;18.400;2023-04-25T01:18:38;11.30;65.20
74511;DHT22;62991;50.040;18.400;2023-04-25T01:21:39;11.20;65.50
74511;DHT22;62991;50.040;18.400;2023-04-25T01:24:40;11.30;65.50
74511;DHT22;62991;50.040;18.400;2023-04-25T01:27:42;11.40;64.30
74511;DHT22;62991;50.040;18.400;2023-04-25T01:30:43;11.20;64.10
74511;DHT22;62991;50.040;18.400;2023-04-25T01:33:44;11.20;63.90
74511;DHT22;62991;50.040;18.400;2023-04-25T01:36:45;11.10;63.40
74511;DHT22;62991;50.040;18.400;2023-04-25T01:39:47;11.10;63.30
74511;DHT22;62991;50.040;18.400;2023-04-25T01:42:49;11.00;62.70
74511;DHT22;62991;50.040;18.400;2023-04-25T01:45:50;10.90;62.30
74511;DHT22;62991;50.040;18.400;2023-04-25T01:48:51;10.90;62.70
74511;DHT22;62991;50.040;18.400;2023-04-25T01:51:52;11.00;62.30
74511;DHT22;62991;50.040;18.400;2023-04-25T01:54:54;11.00;62.30
74511;DHT22;62991;50.040;18.400;2023-04-25T01:57:55;10.70;62.20
74511;DHT22;62991;50.040;18.400;2023-04-25T02:00:55;10.70;62.50
74511;DHT22;62991;50.040;18.400;2023-04-25T02:03:56;10.80;62.20
74511;DHT22;62991;50.040;18.400;2023-04-25T02:06:57;10.80;61.90
74511;DHT22;62991;50.040;18.400;2023-04-25T02:09:57;10.70;62.20
74511;DHT22;62991;50.040;18.400;2023-04-25T02:12:58;10.60;62.50
74511;DHT22;62991;50.040;18.400;2023-04-25T02:15:59;10.60;62.70
74511;DHT22;62991;50.040;18.400;2023-04-25T02:18:59;10.70;62.70
74511;DHT22;62991;50.040;18.400;2023-04-25T02:22:00;10.60;62.40
74511;DHT22;62991;50.040;18.400;2023-04-25T02:25:01;10.60;62.80
74511;DHT22;62991;50.040;18.400;2023-04-25T02:28:04;10.60;62.70
74511;DHT22;62991;50.040;18.400;2023-04-25T02:31:05;10.70;62.50
74511;DHT22;62991;50.040;18.400;2023-04-25T02:34:06;10.70;62.60
74511;DHT22;62991;50.040;18.400;2023-04-25T02:37:06;10.60;62.30
74511;DHT22;62991;50.040;18.400;2023-04-25T02:40:07;10.60;62.20
74511;DHT22;62991;50.040;18.400;2023-04-25T02:43:08;10.60;62.40
74511;DHT22;62991;50.040;18.400;2023-04-25T02:46:09;10.60;61.90
74511;DHT22;62991;50.040;18.400;2023-04-25T02:49:10;10.70;61.90
74511;DHT22;62991;50.040;18.400;2023-04-25T02:52:11;10.90;62.10
74511;DHT22;62991;50.040;18.400;2023-04-25T02:55:13;10.90;61.70
74511;DHT22;62991;50.040;18.400;2023-04-25T02:58:14;10.90;61.30
74511;DHT22;62991;50.040;18.400;2023-04-25T03:01:15;10.90;61.80
74511;DHT22;62991;50.040;18.400;2023-04-25T03:04:16;10.80;62.60
74511;DHT22;62991;50.040;18.400;2023-04-25T03:07:19;10.80;61.80
74511;DHT22;62991;50.040;18.400;2023-04-25T03:10:19;10.70;62.30
74511;DHT22;62991;50.040;18.400;2023-04-25T03:13:20;10.60;62.40
74511;DHT22;62991;50.040;18.400;2023-04-25T03:16:22;10.60;62.90
74511;DHT22;62991;50.040;18.400;2023-04-25T03:19:22;10.60;62.60
74511;DHT22;62991;50.040;18.400;2023-04-25T03:22:23;10.70;62.50
74511;DHT22;62991;50.040;18.400;2023-04-25T03:25:24;10.80;62.40
74511;DHT22;62991;50.040;18.400;2023-04-25T03:28:25;10.70;62.60
74511;DHT22;62991;50.040;18.400;2023-04-25T03:31:25;10.80;62.30
74511;DHT22;62991;50.040;18.400;2023-04-25T03:34:26;10.60;63.10
74511;DHT22;62991;50.040;18.400;2023-04-25T03:37:27;10.60;63.20
74511;DHT22;62991;50.040;18.400;2023-04-25T03:40:27;10.60;63.70
74511;DHT22;62991;50.040;18.400;2023-04-25T03:43:28;10.50;64.10
74511;DHT22;62991;50.040;18.400;2023-04-25T03:46:29;10.50;64.40
74511;DHT22;62991;50.040;18.400;2023-04-25T03:49:29;10.70;63.50
74511;DHT22;62991;50.040;18.400;2023-04-25T03:52:30;10.60;64.10
74511;DHT22;62991;50.040;18.400;2023-04-25T03:55:30;10.80;63.80
74511;DHT22;62991;50.040;18.400;2023-04-25T03:58:31;10.80;64.00
74511;DHT22;62991;50.040;18.400;2023-04-25T04:01:32;10.90;63.50
74511;DHT22;62991;50.040;18.400;2023-04-25T04:04:32;10.80;63.60
74511;DHT22;62991;50.040;18.400;2023-04-25T04:07:33;10.80;63.10
74511;DHT22;62991;50.040;18.400;2023-04-25T04:10:36;10.80;63.40
74511;DHT22;62991;50.040;18.400;2023-04-25T04:13:37;11.00;62.50
74511;DHT22;62991;50.040;18.400;2023-04-25T04:16:38;11.00;62.60
74511;DHT22;62991;50.040;18.400;2023-04-25T04:19:39;11.10;62.10
74511;DHT22;62991;50.040;18.400;2023-04-25T04:22:39;11.20;61.70
74511;DHT22;62991;50.040;18.400;2023-04-25T04:25:40;11.10;61.40
74511;DHT22;62991;50.040;18.400;2023-04-25T04:28:41;11.10;61.80
74511;DHT22;62991;50.040;18.400;2023-04-25T04:31:41;11.30;61.70
74511;DHT22;62991;50.040;18.400;2023-04-25T04:34:42;11.30;61.20
74511;DHT22;62991;50.040;18.400;2023-04-25T04:37:43;11.20;61.70
74511;DHT22;62991;50.040;18.400;2023-04-25T04:40:45;11.40;61.00
74511;DHT22;62991;50.040;18.400;2023-04-25T04:43:48;11.50;60.60
74511;DHT22;62991;50.040;18.400;2023-04-25T04:46:48;11.40;60.50
74511;DHT22;62991;50.040;18.400;2023-04-25T04:49:49;11.30;60.90
74511;DHT22;62991;50.040;18.400;2023-04-25T04:52:50;11.20;60.70
74511;DHT22;62991;50.040;18.400;2023-04-25T04:55:51;11.10;60.40
74511;DHT22;62991;50.040;18.400;2023-04-25T04:58:51;11.00;60.50
74511;DHT22;62991;50.040;18.400;2023-04-25T05:01:52;10.90;61.00
74511;DHT22;62991;50.040;18.400;2023-04-25T05:04:53;10.90;60.70
74511;DHT22;62991;50.040;18.400;2023-04-25T05:07:54;11.00;60.60
74511;DHT22;62991;50.040;18.400;2023-04-25T05:10:54;10.90;61.00
74511;DHT22;62991;50.040;18.400;2023-04-25T05:13:55;10.90;61.00
74511;DHT22;62991;50.040;18.400;2023-04-25T05:16:56;10.90;60.40
74511;DHT22;62991;50.040;18.400;2023-04-25T05:19:57;10.70;61.00
74511;DHT22;62991;50.040;18.400;2023-04-25T05:22:57;10.60;61.30
74511;DHT22;62991;50.040;18.400;2023-04-25T05:25:58;10.50;61.40
74511;DHT22;62991;50.040;18.400;2023-04-25T05:28:59;10.60;61.60
74511;DHT22;62991;50.040;18.400;2023-04-25T05:32:00;10.50;61.80
74511;DHT22;62991;50.040;18.400;2023-04-25T05:35:01;10.60;61.30
74511;DHT22;62991;50.040;18.400;2023-04-25T05:38:01;10.70;60.90
74511;DHT22;62991;50.040;18.400;2023-04-25T05:41:02;10.70;60.70
74511;DHT22;62991;50.040;18.400;2023-04-25T05:44:03;10.80;60.40
74511;DHT22;62991;50.040;18.400;2023-04-25T05:47:03;10.70;60.30
74511;DHT22;62991;50.040;18.400;2023-04-25T05:50:05;10.80;59.50
74511;DHT22;62991;50.040;18.400;2023-04-25T05:53:06;10.70;60.50
74511;DHT22;62991;50.040;18.400;2023-04-25T05:56:08;10.70;60.00
74511;DHT22;62991;50.040;18.400;2023-04-25T05:59:09;10.80;59.60
74511;DHT22;62991;50.040;18.400;2023-04-25T06:02:09;10.70;59.80
74511;DHT22;62991;50.040;18.400;2023-04-25T06:05:10;10.80;59.80
74511;DHT22;62991;50.040;18.400;2023-04-25T06:08:10;11.00;59.30
74511;DHT22;62991;50.040;18.400;2023-04-25T06:11:11;11.20;58.40
74511;DHT22;62991;50.040;18.400;2023-04-25T06:14:12;11.20;58.00
74511;DHT22;62991;50.040;18.400;2023-04-25T06:17:13;11.30;57.80
74511;DHT22;62991;50.040;18.400;2023-04-25T06:20:13;11.30;57.90
74511;DHT22;62991;50.040;18.400;2023-04-25T06:23:14;11.30;57.60
74511;DHT22;62991;50.040;18.400;2023-04-25T06:26:15;11.30;57.80
74511;DHT22;62991;50.040;18.400;2023-04-25T06:29:15;11.30;57.60
74511;DHT22;62991;50.040;18.400;2023-04-25T06:32:16;11.40;57.10
74511;DHT22;62991;50.040;18.400;2023-04-25T06:35:19;11.40;57.20
74511;DHT22;62991;50.040;18.400;2023-04-25T06:38:19;11.40;57.70
74511;DHT22;62991;50.040;18.400;2023-04-25T06:41:20;11.50;57.90
74511;DHT22;62991;50.040;18.400;2023-04-25T06:44:21;11.50;57.30
74511;DHT22;62991;50.040;18.400;2023-04-25T06:47:23;11.50;57.10
74511;DHT22;62991;50.040;18.400;2023-04-25T06:50:24;11.60;56.90
74511;DHT22;62991;50.040;18.400;2023-04-25T06:53:24;11.70;55.90
74511;DHT22;62991;50.040;18.400;2023-04-25T06:56:25;11.80;56.50
74511;DHT22;62991;50.040;18.400;2023-04-25T06:59:26;11.90;55.70
74511;DHT22;62991;50.040;18.400;2023-04-25T07:02:27;12.10;56.00
74511;DHT22;62991;50.040;18.400;2023-04-25T07:05:27;12.40;55.10
74511;DHT22;62991;50.040;18.400;2023-04-25T07:08:29;12.40;54.40
74511;DHT22;62991;50.040;18.400;2023-04-25T07:11:30;12.50;54.40
74511;DHT22;62991;50.040;18.400;2023-04-25T07:14:30;12.60;54.90
74511;DHT22;62991;50.040;18.400;2023-04-25T07:17:32;12.30;53.90
74511;DHT22;62991;50.040;18.400;2023-04-25T07:20:33;12.20;54.80
74511;DHT22;62991;50.040;18.400;2023-04-25T07:23:33;12.40;54.10
74511;DHT22;62991;50.040;18.400;2023-04-25T07:26:34;12.30;54.30
74511;DHT22;62991;50.040;18.400;2023-04-25T07:29:35;12.20;53.20
74511;DHT22;62991;50.040;18.400;2023-04-25T07:32:38;12.10;54.30
74511;DHT22;62991;50.040;18.400;2023-04-25T07:35:39;12.30;53.10
74511;DHT22;62991;50.040;18.400;2023-04-25T07:38:40;12.30;54.00
74511;DHT22;62991;50.040;18.400;2023-04-25T07:41:40;12.40;52.90
74511;DHT22;62991;50.040;18.400;2023-04-25T07:44:41;12.30;52.40
74511;DHT22;62991;50.040;18.400;2023-04-25T07:47:42;12.40;51.60
74511;DHT22;62991;50.040;18.400;2023-04-25T07:50:43;12.10;51.70
74511;DHT22;62991;50.040;18.400;2023-04-25T07:53:44;12.20;52.10
74511;DHT22;62991;50.040;18.400;2023-04-25T07:56:44;12.30;51.60
74511;DHT22;62991;50.040;18.400;2023-04-25T07:59:45;12.40;51.40
74511;DHT22;62991;50.040;18.400;2023-04-25T08:02:46;12.50;50.80
74511;DHT22;62991;50.040;18.400;2023-04-25T08:05:46;12.30;51.50
74511;DHT22;62991;50.040;18.400;2023-04-25T08:08:47;12.30;51.90
74511;DHT22;62991;50.040;18.400;2023-04-25T08:11:48;12.20;52.00
74511;DHT22;62991;50.040;18.400;2023-04-25T08:14:48;12.00;51.80
74511;DHT22;62991;50.040;18.400;2023-04-25T08:17:49;11.90;52.70
74511;DHT22;62991;50.040;18.400;2023-04-25T08:20:50;12.20;53.10
74511;DHT22;62991;50.040;18.400;2023-04-25T08:23:50;12.40;53.00
74511;DHT22;62991;50.040;18.400;2023-04-25T08:26:51;12.50;52.90
74511;DHT22;62991;50.040;18.400;2023-04-25T08:29:52;12.70;51.70
74511;DHT22;62991;50.040;18.400;2023-04-25T08:32:52;12.60;50.20
74511;DHT22;62991;50.040;18.400;2023-04-25T08:35:54;12.50;51.10
74511;DHT22;62991;50.040;18.400;2023-04-25T08:38:55;12.70;50.50
74511;DHT22;62991;50.040;18.400;2023-04-25T08:41:56;12.70;50.30
74511;DHT22;62991;50.040;18.400;2023-04-25T08:44:57;12.60;49.30
74511;DHT22;62991;50.040;18.400;2023-04-25T08:47:59;12.70;50.60
74511;DHT22;62991;50.040;18.400;2023-04-25T08:51:02;12.70;50.80
74511;DHT22;62991;50.040;18.400;2023-04-25T08:54:11;12.80;50.20
74511;DHT22;62991;50.040;18.400;2023-04-25T08:57:12;12.90;50.30
74511;DHT22;62991;50.040;18.400;2023-04-25T09:00:16;12.80;49.90
74511;DHT22;62991;50.040;18.400;2023-04-25T09:03:18;12.30;50.00
74511;DHT22;62991;50.040;18.400;2023-04-25T09:06:19;12.40;50.10
74511;DHT22;62991;50.040;18.400;2023-04-25T09:09:20;12.50;49.80
74511;DHT22;62991;50.040;18.400;2023-04-25T09:12:22;12.70;51.40
74511;DHT22;62991;50.040;18.400;2023-04-25T09:15:23;12.50;50.10
74511;DHT22;62991;50.040;18.400;2023-04-25T09:18:31;12.30;50.10
74511;DHT22;62991;50.040;18.400;2023-04-25T09:21:34;12.40;49.60
74511;DHT22;62991;50.040;18.400;2023-04-25T09:24:37;12.40;49.80
74511;DHT22;62991;50.040;18.400;2023-04-25T09:27:51;12.70;49.70
74511;DHT22;62991;50.040;18.400;2023-04-25T09:30:56;12.70;50.10
74511;DHT22;62991;50.040;18.400;2023-04-25T09:34:00;12.70;51.30
74511;DHT22;62991;50.040;18.400;2023-04-25T09:37:01;12.90;50.40
74511;DHT22;62991;50.040;18.400;2023-04-25T09:40:05;13.10;50.40
74511;DHT22;62991;50.040;18.400;2023-04-25T09:46:17;13.10;49.20
74511;DHT22;62991;50.040;18.400;2023-04-25T09:49:21;13.20;49.30
74511;DHT22;62991;50.040;18.400;2023-04-25T09:52:23;13.20;49.70
74511;DHT22;62991;50.040;18.400;2023-04-25T09:55:25;13.20;50.10
74511;DHT22;62991;50.040;18.400;2023-04-25T09:58:29;13.10;50.10
74511;DHT22;62991;50.040;18.400;2023-04-25T10:01:30;12.90;50.50
74511;DHT22;62991;50.040;18.400;2023-04-25T10:04:34;13.00;50.80
74511;DHT22;62991;50.040;18.400;2023-04-25T10:07:36;13.20;51.10
74511;DHT22;62991;50.040;18.400;2023-04-25T10:10:40;13.30;50.80
74511;DHT22;62991;50.040;18.400;2023-04-25T10:13:41;13.50;49.90
74511;DHT22;62991;50.040;18.400;2023-04-25T10:16:43;13.60;49.80
74511;DHT22;62991;50.040;18.400;2023-04-25T10:19:44;14.00;48.50
74511;DHT22;62991;50.040;18.400;2023-04-25T10:22:45;14.10;47.80
74511;DHT22;62991;50.040;18.400;2023-04-25T10:25:52;13.80;47.60
74511;DHT22;62991;50.040;18.400;2023-04-25T10:28:59;13.80;48.00
74511;DHT22;62991;50.040;18.400;2023-04-25T10:32:00;13.70;48.50
74511;DHT22;62991;50.040;18.400;2023-04-25T10:35:39;14.00;48.80
74511;DHT22;62991;50.040;18.400;2023-04-25T10:38:43;14.10;48.00
74511;DHT22;62991;50.040;18.400;2023-04-25T10:41:51;14.20;46.60
74511;DHT22;62991;50.040;18.400;2023-04-25T10:45:04;14.30;49.30
74511;DHT22;62991;50.040;18.400;2023-04-25T10:48:25;14.50;47.80
74511;DHT22;62991;50.040;18.400;2023-04-25T10:51:26;14.30;47.40
74511;DHT22;62991;50.040;18.400;2023-04-25T10:54:27;14.30;47.40
74511;DHT22;62991;50.040;18.400;2023-04-25T10:57:44;14.40;47.40
74511;DHT22;62991;50.040;18.400;2023-04-25T11:00:47;14.30;46.40
74511;DHT22;62991;50.040;18.400;2023-04-25T11:03:57;14.40;47.30
74511;DHT22;62991;50.040;18.400;2023-04-25T11:07:23;14.60;47.20
74511;DHT22;62991;50.040;18.400;2023-04-25T11:10:31;14.60;46.10
74511;DHT22;62991;50.040;18.400;2023-04-25T11:13:32;14.50;45.30
74511;DHT22;62991;50.040;18.400;2023-04-25T11:16:32;14.50;46.00
74511;DHT22;62991;50.040;18.400;2023-04-25T11:19:33;14.60;46.30
74511;DHT22;62991;50.040;18.400;2023-04-25T11:22:34;14.60;45.80
74511;DHT22;62991;50.040;18.400;2023-04-25T11:25:35;14.40;46.10
74511;DHT22;62991;50.040;18.400;2023-04-25T11:28:36;14.50;45.50
74511;DHT22;62991;50.040;18.400;2023-04-25T11:31:37;14.70;44.90
74511;DHT22;62991;50.040;18.400;2023-04-25T11:34:38;14.60;45.20
74511;DHT22;62991;50.040;18.400;2023-04-25T11:37:39;14.60;45.70
74511;DHT22;62991;50.040;18.400;2023-04-25T11:40:41;14.40;45.80
74511;DHT22;62991;50.040;18.400;2023-04-25T11:43:44;14.30;45.10
74511;DHT22;62991;50.040;18.400;2023-04-25T11:46:45;14.10;45.40
74511;DHT22;62991;50.040;18.400;2023-04-25T11:49:46;14.10;45.70
74511;DHT22;62991;50.040;18.400;2023-04-25T11:52:47;14.10;45.80
74511;DHT22;62991;50.040;18.400;2023-04-25T11:55:48;14.00;45.80
74511;DHT22;62991;50.040;18.400;2023-04-25T11:59:00;14.30;45.00
74511;DHT22;62991;50.040;18.400;2023-04-25T12:02:01;14.30;44.80
74511;DHT22;62991;50.040;18.400;2023-04-25T12:05:02;14.60;45.10
74511;DHT22;62991;50.040;18.400;2023-04-25T12:08:10;14.90;44.70
74511;DHT22;62991;50.040;18.400;2023-04-25T12:11:21;14.80;44.70
74511;DHT22;62991;50.040;18.400;2023-04-25T12:14:27;15.00;44.70
74511;DHT22;62991;50.040;18.400;2023-04-25T12:17:29;15.00;44.30
74511;DHT22;62991;50.040;18.400;2023-04-25T12:20:31;15.00;44.30
74511;DHT22;62991;50.040;18.400;2023-04-25T12:23:32;15.10;44.80
74511;DHT22;62991;50.040;18.400;2023-04-25T12:26:52;15.30;43.70
74511;DHT22;62991;50.040;18.400;2023-04-25T12:29:55;15.40;43.80
74511;DHT22;62991;50.040;18.400;2023-04-25T12:32:56;15.50;43.80
74511;DHT22;62991;50.040;18.400;2023-04-25T12:35:57;15.40;43.40
74511;DHT22;62991;50.040;18.400;2023-04-25T12:38:58;15.70;43.50
74511;DHT22;62991;50.040;18.400;2023-04-25T12:42:04;15.80;43.20
74511;DHT22;62991;50.040;18.400;2023-04-25T12:45:08;15.90;43.20
74511;DHT22;62991;50.040;18.400;2023-04-25T12:48:09;16.20;44.40
74511;DHT22;62991;50.040;18.400;2023-04-25T12:51:09;16.20;44.40
74511;DHT22;62991;50.040;18.400;2023-04-25T12:54:10;16.60;42.70
74511;DHT22;62991;50.040;18.400;2023-04-25T12:57:11;16.80;41.70
74511;DHT22;62991;50.040;18.400;2023-04-25T13:00:12;16.70;41.40
74511;DHT22;62991;50.040;18.400;2023-04-25T13:03:15;16.40;41.60
74511;DHT22;62991;50.040;18.400;2023-04-25T13:06:16;16.40;42.00
74511;DHT22;62991;50.040;18.400;2023-04-25T13:09:17;16.30;42.10
74511;DHT22;62991;50.040;18.400;2023-04-25T13:12:18;16.60;42.40
74511;DHT22;62991;50.040;18.400;2023-04-25T13:15:19;16.40;42.40
74511;DHT22;62991;50.040;18.400;2023-04-25T13:18:20;16.40;41.60
74511;DHT22;62991;50.040;18.400;2023-04-25T13:21:21;16.70;42.00
74511;DHT22;62991;50.040;18.400;2023-04-25T13:24:21;16.60;42.40
74511;DHT22;62991;50.040;18.400;2023-04-25T13:27:22;16.50;42.20
74511;DHT22;62991;50.040;18.400;2023-04-25T13:30:23;16.40;41.90
74511;DHT22;62991;50.040;18.400;2023-04-25T13:33:24;16.30;42.40
74511;DHT22;62991;50.040;18.400;2023-04-25T13:36:24;16.60;41.80
74511;DHT22;62991;50.040;18.400;2023-04-25T13:39:26;17.00;41.10
74511;DHT22;62991;50.040;18.400;2023-04-25T13:42:26;17.10;41.50
74511;DHT22;62991;50.040;18.400;2023-04-25T13:45:27;17.10;41.80
74511;DHT22;62991;50.040;18.400;2023-04-25T13:48:28;17.90;43.00
74511;DHT22;62991;50.040;18.400;2023-04-25T13:51:28;18.30;40.40
74511;DHT22;62991;50.040;18.400;2023-04-25T13:54:29;18.40;40.00
74511;DHT22;62991;50.040;18.400;2023-04-25T13:57:33;17.60;41.20
74511;DHT22;62991;50.040;18.400;2023-04-25T14:00:37;18.60;40.20
74511;DHT22;62991;50.040;18.400;2023-04-25T14:03:42;19.40;39.20
74511;DHT22;62991;50.040;18.400;2023-04-25T14:06:43;19.80;37.30
74511;DHT22;62991;50.040;18.400;2023-04-25T14:09:44;18.70;38.70
74511;DHT22;62991;50.040;18.400;2023-04-25T14:12:45;18.50;38.50
74511;DHT22;62991;50.040;18.400;2023-04-25T14:15:45;22.20;36.40
74511;DHT22;62991;50.040;18.400;2023-04-25T14:18:46;22.50;34.00
74511;DHT22;62991;50.040;18.400;2023-04-25T14:21:47;20.50;35.90
74511;DHT22;62991;50.040;18.400;2023-04-25T14:24:48;19.00;37.80
74511;DHT22;62991;50.040;18.400;2023-04-25T14:27:49;17.80;39.50
74511;DHT22;62991;50.040;18.400;2023-04-25T14:30:50;17.00;40.70
74511;DHT22;62991;50.040;18.400;2023-04-25T14:33:50;16.20;42.00
74511;DHT22;62991;50.040;18.400;2023-04-25T14:36:52;15.40;43.10
74511;DHT22;62991;50.040;18.400;2023-04-25T14:39:52;15.10;44.10
74511;DHT22;62991;50.040;18.400;2023-04-25T14:42:53;14.90;44.80
74511;DHT22;62991;50.040;18.400;2023-04-25T14:45:54;14.60;45.60
74511;DHT22;62991;50.040;18.400;2023-04-25T14:48:54;14.40;46.70
74511;DHT22;62991;50.040;18.400;2023-04-25T14:51:56;14.20;47.00
74511;DHT22;62991;50.040;18.400;2023-04-25T14:54:57;14.20;47.00
74511;DHT22;62991;50.040;18.400;2023-04-25T14:57:57;14.20;47.60
74511;DHT22;62991;50.040;18.400;2023-04-25T15:00:59;14.30;47.50
74511;DHT22;62991;50.040;18.400;2023-04-25T15:03:59;14.20;47.00
74511;DHT22;62991;50.040;18.400;2023-04-25T15:07:00;14.30;46.90
74511;DHT22;62991;50.040;18.400;2023-04-25T15:10:02;14.50;47.30
74511;DHT22;62991;50.040;18.400;2023-04-25T15:13:03;14.50;46.60
74511;DHT22;62991;50.040;18.400;2023-04-25T15:16:04;14.50;46.70
74511;DHT22;62991;50.040;18.400;2023-04-25T15:19:06;14.20;46.90
74511;DHT22;62991;50.040;18.400;2023-04-25T15:22:07;13.90;47.70
74511;DHT22;62991;50.040;18.400;2023-04-25T15:25:09;14.10;47.60
74511;DHT22;62991;50.040;18.400;2023-04-25T15:28:10;13.90;47.70
74511;DHT22;62991;50.040;18.400;2023-04-25T15:31:11;13.90;52.40
74511;DHT22;62991;50.040;18.400;2023-04-25T15:34:11;13.70;53.60
74511;DHT22;62991;50.040;18.400;2023-04-25T15:37:12;13.50;54.10
74511;DHT22;62991;50.040;18.400;2023-04-25T15:40:16;13.50;54.30
74511;DHT22;62991;50.040;18.400;2023-04-25T15:43:17;13.70;54.10
74511;DHT22;62991;50.040;18.400;2023-04-25T15:46:17;13.90;52.60
74511;DHT22;62991;50.040;18.400;2023-04-25T15:49:18;13.90;52.60
74511;DHT22;62991;50.040;18.400;2023-04-25T15:52:21;13.60;54.10
74511;DHT22;62991;50.040;18.400;2023-04-25T15:55:21;13.10;55.90
74511;DHT22;62991;50.040;18.400;2023-04-25T15:58:22;13.00;56.30
74511;DHT22;62991;50.040;18.400;2023-04-25T16:01:23;13.50;55.70
74511;DHT22;62991;50.040;18.400;2023-04-25T16:04:25;14.10;54.00
74511;DHT22;62991;50.040;18.400;2023-04-25T16:07:30;14.60;51.90
74511;DHT22;62991;50.040;18.400;2023-04-25T16:10:31;14.80;51.10
74511;DHT22;62991;50.040;18.400;2023-04-25T16:13:32;14.90;51.10
74511;DHT22;62991;50.040;18.400;2023-04-25T16:16:34;14.70;51.10
74511;DHT22;62991;50.040;18.400;2023-04-25T16:19:35;14.00;52.80
74511;DHT22;62991;50.040;18.400;2023-04-25T16:22:40;13.90;52.90
74511;DHT22;62991;50.040;18.400;2023-04-25T16:25:41;14.00;52.90
74511;DHT22;62991;50.040;18.400;2023-04-25T16:28:42;13.80;51.80
74511;DHT22;62991;50.040;18.400;2023-04-25T16:31:43;13.60;52.80
74511;DHT22;62991;50.040;18.400;2023-04-25T16:34:43;13.50;53.40
74511;DHT22;62991;50.040;18.400;2023-04-25T16:37:44;13.60;51.10
74511;DHT22;62991;50.040;18.400;2023-04-25T16:40:45;13.70;49.00
74511;DHT22;62991;50.040;18.400;2023-04-25T16:43:46;13.50;47.20
74511;DHT22;62991;50.040;18.400;2023-04-25T16:46:46;13.40;46.80
74511;DHT22;62991;50.040;18.400;2023-04-25T16:49:47;13.40;46.20
74511;DHT22;62991;50.040;18.400;2023-04-25T16:52:48;13.30;46.70
74511;DHT22;62991;50.040;18.400;2023-04-25T16:55:49;13.30;46.80
74511;DHT22;62991;50.040;18.400;2023-04-25T16:58:50;13.30;46.70
74511;DHT22;62991;50.040;18.400;2023-04-25T17:01:51;13.20;47.10
74511;DHT22;62991;50.040;18.400;2023-04-25T17:04:52;13.30;47.10
74511;DHT22;62991;50.040;18.400;2023-04-25T17:07:53;13.30;47.20
74511;DHT22;62991;50.040;18.400;2023-04-25T17:10:53;13.40;47.40
74511;DHT22;62991;50.040;18.400;2023-04-25T17:13:54;13.20;47.50
74511;DHT22;62991;50.040;18.400;2023-04-25T17:16:55;13.20;47.50
74511;DHT22;62991;50.040;18.400;2023-04-25T17:19:55;13.20;47.30
74511;DHT22;62991;50.040;18.400;2023-04-25T17:22:56;13.10;47.10
74511;DHT22;62991;50.040;18.400;2023-04-25T17:25:57;13.10;47.30
74511;DHT22;62991;50.040;18.400;2023-04-25T17:28:58;13.10;47.40
74511;DHT22;62991;50.040;18.400;2023-04-25T17:31:59;13.10;47.60
74511;DHT22;62991;50.040;18.400;2023-04-25T17:35:00;13.20;47.40
74511;DHT22;62991;50.040;18.400;2023-04-25T17:38:00;13.10;47.40
74511;DHT22;62991;50.040;18.400;2023-04-25T17:41:01;13.00;47.60
74511;DHT22;62991;50.040;18.400;2023-04-25T17:44:02;12.90;48.00
74511;DHT22;62991;50.040;18.400;2023-04-25T17:47:03;12.90;48.20
74511;DHT22;62991;50.040;18.400;2023-04-25T17:50:05;12.90;48.10
74511;DHT22;62991;50.040;18.400;2023-04-25T17:53:06;12.90;48.50
74511;DHT22;62991;50.040;18.400;2023-04-25T17:56:06;12.80;48.40
74511;DHT22;62991;50.040;18.400;2023-04-25T17:59:08;12.80;48.70
74511;DHT22;62991;50.040;18.400;2023-04-25T18:02:09;12.80;49.00
74511;DHT22;62991;50.040;18.400;2023-04-25T18:05:10;12.80;49.10
74511;DHT22;62991;50.040;18.400;2023-04-25T18:08:10;12.80;49.30
74511;DHT22;62991;50.040;18.400;2023-04-25T18:11:11;12.80;49.40
74511;DHT22;62991;50.040;18.400;2023-04-25T18:14:13;12.90;49.50
74511;DHT22;62991;50.040;18.400;2023-04-25T18:17:14;13.00;49.30
74511;DHT22;62991;50.040;18.400;2023-04-25T18:20:15;13.00;49.50
74511;DHT22;62991;50.040;18.400;2023-04-25T18:23:16;13.00;49.50
74511;DHT22;62991;50.040;18.400;2023-04-25T18:26:17;12.90;49.80
74511;DHT22;62991;50.040;18.400;2023-04-25T18:29:17;12.80;50.20
74511;DHT22;62991;50.040;18.400;2023-04-25T18:32:18;12.70;50.40
74511;DHT22;62991;50.040;18.400;2023-04-25T18:35:19;12.60;50.90
74511;DHT22;62991;50.040;18.400;2023-04-25T18:38:20;12.50;51.00
74511;DHT22;62991;50.040;18.400;2023-04-25T18:41:22;12.60;51.10
74511;DHT22;62991;50.040;18.400;2023-04-25T18:44:26;12.70;51.10
74511;DHT22;62991;50.040;18.400;2023-04-25T18:47:27;12.40;51.60
74511;DHT22;62991;50.040;18.400;2023-04-25T18:50:28;12.20;51.90
74511;DHT22;62991;50.040;18.400;2023-04-25T18:53:28;12.20;52.00